sensor_id;sensor_type;location;lat;lon;timestamp;temperature;humidity
15609;DHT22;64278;45.642;13.756;2023-04-16T00:02:11;22.90;50.30
15609;DHT22;64278;45.642;13.756;2023-04-16T00:04:37;22.90;50.30
15609;DHT22;64278;45.642;13.756;2023-04-16T00:07:03;22.90;50.30
15609;DHT22;64278;45.642;13.756;2023-04-16T00:09:28;22.80;50.30
15609;DHT22;64278;45.642;13.756;2023-04-16T00:11:54;22.80;50.30
15609;DHT22;64278;45.642;13.756;2023-04-16T00:14:20;22.80;50.30
15609;DHT22;64278;45.642;13.756;2023-04-16T00:16:46;22.80;50.20
15609;DHT22;64278;45.642;13.756;2023-04-16T00:19:11;22.80;50.30
15609;DHT22;64278;45.642;13.756;2023-04-16T00:21:37;22.80;50.30
15609;DHT22;64278;45.642;13.756;2023-04-16T00:24:03;22.80;50.30
15609;DHT22;64278;45.642;13.756;2023-04-16T00:26:29;22.80;50.30
15609;DHT22;64278;45.642;13.756;2023-04-16T00:28:54;22.80;50.30
15609;DHT22;64278;45.642;13.756;2023-04-16T00:31:30;22.80;50.20
15609;DHT22;64278;45.642;13.756;2023-04-16T00:33:58;22.80;50.30
15609;DHT22;64278;45.642;13.756;2023-04-16T00:36:25;22.80;50.20
15609;DHT22;64278;45.642;13.756;2023-04-16T00:38:51;22.80;50.10
15609;DHT22;64278;45.642;13.756;2023-04-16T00:41:17;22.80;50.10
15609;DHT22;64278;45.642;13.756;2023-04-16T00:43:43;22.80;50.00
15609;DHT22;64278;45.642;13.756;2023-04-16T00:46:09;22.80;49.90
15609;DHT22;64278;45.642;13.756;2023-04-16T00:48:38;22.80;50.00
15609;DHT22;64278;45.642;13.756;2023-04-16T00:51:06;22.80;49.90
15609;DHT22;64278;45.642;13.756;2023-04-16T00:53:32;22.80;49.90
15609;DHT22;64278;45.642;13.756;2023-04-16T00:55:59;22.80;50.00
15609;DHT22;64278;45.642;13.756;2023-04-16T00:58:27;22.80;49.80
15609;DHT22;64278;45.642;13.756;2023-04-16T01:00:54;22.80;49.60
15609;DHT22;64278;45.642;13.756;2023-04-16T01:03:19;22.80;49.70
15609;DHT22;64278;45.642;13.756;2023-04-16T01:05:45;22.80;49.80
15609;DHT22;64278;45.642;13.756;2023-04-16T01:08:17;22.80;49.80
15609;DHT22;64278;45.642;13.756;2023-04-16T01:10:43;22.80;49.90
15609;DHT22;64278;45.642;13.756;2023-04-16T01:13:10;22.80;49.90
15609;DHT22;64278;45.642;13.756;2023-04-16T01:15:36;22.80;50.00
15609;DHT22;64278;45.642;13.756;2023-04-16T01:18:01;22.80;50.00
15609;DHT22;64278;45.642;13.756;2023-04-16T01:20:28;22.80;50.00
15609;DHT22;64278;45.642;13.756;2023-04-16T01:22:54;22.80;50.10
15609;DHT22;64278;45.642;13.756;2023-04-16T01:25:19;22.70;50.00
15609;DHT22;64278;45.642;13.756;2023-04-16T01:27:48;22.70;50.10
15609;DHT22;64278;45.642;13.756;2023-04-16T01:30:14;22.70;50.00
15609;DHT22;64278;45.642;13.756;2023-04-16T01:32:40;22.70;50.10
15609;DHT22;64278;45.642;13.756;2023-04-16T01:35:06;22.70;50.10
15609;DHT22;64278;45.642;13.756;2023-04-16T01:37:32;22.70;50.10
15609;DHT22;64278;45.642;13.756;2023-04-16T01:39:58;22.70;50.10
15609;DHT22;64278;45.642;13.756;2023-04-16T01:42:23;22.70;50.10
15609;DHT22;64278;45.642;13.756;2023-04-16T01:44:49;22.70;50.00
15609;DHT22;64278;45.642;13.756;2023-04-16T01:47:15;22.70;50.00
15609;DHT22;64278;45.642;13.756;2023-04-16T01:49:41;22.70;50.00
15609;DHT22;64278;45.642;13.756;2023-04-16T01:52:08;22.70;50.00
15609;DHT22;64278;45.642;13.756;2023-04-16T01:54:33;22.70;50.00
15609;DHT22;64278;45.642;13.756;2023-04-16T01:56:59;22.70;50.00
15609;DHT22;64278;45.642;13.756;2023-04-16T01:59:26;22.70;50.10
15609;DHT22;64278;45.642;13.756;2023-04-16T02:01:51;22.60;50.00
15609;DHT22;64278;45.642;13.756;2023-04-16T02:04:17;22.60;50.00
15609;DHT22;64278;45.642;13.756;2023-04-16T02:06:43;22.60;50.00
15609;DHT22;64278;45.642;13.756;2023-04-16T02:09:09;22.60;50.10
15609;DHT22;64278;45.642;13.756;2023-04-16T02:11:34;22.60;50.10
15609;DHT22;64278;45.642;13.756;2023-04-16T02:14:00;22.60;50.10
15609;DHT22;64278;45.642;13.756;2023-04-16T02:16:26;22.60;50.10
15609;DHT22;64278;45.642;13.756;2023-04-16T02:18:52;22.50;50.00
15609;DHT22;64278;45.642;13.756;2023-04-16T02:21:17;22.50;50.10
15609;DHT22;64278;45.642;13.756;2023-04-16T02:23:44;22.50;50.10
15609;DHT22;64278;45.642;13.756;2023-04-16T02:26:12;22.50;50.10
15609;DHT22;64278;45.642;13.756;2023-04-16T02:28:38;22.50;50.20
15609;DHT22;64278;45.642;13.756;2023-04-16T02:31:03;22.50;50.30
15609;DHT22;64278;45.642;13.756;2023-04-16T02:33:29;22.50;50.30
15609;DHT22;64278;45.642;13.756;2023-04-16T02:35:56;22.50;50.40
15609;DHT22;64278;45.642;13.756;2023-04-16T02:38:22;22.40;50.40
15609;DHT22;64278;45.642;13.756;2023-04-16T02:40:47;22.40;50.50
15609;DHT22;64278;45.642;13.756;2023-04-16T02:43:13;22.40;50.50
15609;DHT22;64278;45.642;13.756;2023-04-16T02:45:39;22.40;50.60
15609;DHT22;64278;45.642;13.756;2023-04-16T02:48:04;22.40;50.70
15609;DHT22;64278;45.642;13.756;2023-04-16T02:50:31;22.40;50.70
15609;DHT22;64278;45.642;13.756;2023-04-16T02:52:57;22.40;50.70
15609;DHT22;64278;45.642;13.756;2023-04-16T02:55:22;22.40;51.40
15609;DHT22;64278;45.642;13.756;2023-04-16T02:57:48;22.40;50.80
15609;DHT22;64278;45.642;13.756;2023-04-16T03:00:14;22.40;50.90
15609;DHT22;64278;45.642;13.756;2023-04-16T03:02:39;22.30;50.90
15609;DHT22;64278;45.642;13.756;2023-04-16T03:05:07;22.30;50.90
15609;DHT22;64278;45.642;13.756;2023-04-16T03:07:32;22.30;51.00
15609;DHT22;64278;45.642;13.756;2023-04-16T03:09:58;22.30;51.10
15609;DHT22;64278;45.642;13.756;2023-04-16T03:12:24;22.30;51.10
15609;DHT22;64278;45.642;13.756;2023-04-16T03:14:50;22.30;51.10
15609;DHT22;64278;45.642;13.756;2023-04-16T03:17:17;22.30;51.10
15609;DHT22;64278;45.642;13.756;2023-04-16T03:19:42;22.30;51.20
15609;DHT22;64278;45.642;13.756;2023-04-16T03:22:08;22.30;51.20
15609;DHT22;64278;45.642;13.756;2023-04-16T03:24:33;22.30;51.20
15609;DHT22;64278;45.642;13.756;2023-04-16T03:26:59;22.30;51.20
15609;DHT22;64278;45.642;13.756;2023-04-16T03:29:26;22.30;51.20
15609;DHT22;64278;45.642;13.756;2023-04-16T03:31:52;22.30;51.30
15609;DHT22;64278;45.642;13.756;2023-04-16T03:34:18;22.30;51.30
15609;DHT22;64278;45.642;13.756;2023-04-16T03:36:43;22.20;51.20
15609;DHT22;64278;45.642;13.756;2023-04-16T03:39:09;22.20;51.20
15609;DHT22;64278;45.642;13.756;2023-04-16T03:41:35;22.20;51.20
15609;DHT22;64278;45.642;13.756;2023-04-16T03:44:00;22.20;51.20
15609;DHT22;64278;45.642;13.756;2023-04-16T03:46:26;22.20;51.20
15609;DHT22;64278;45.642;13.756;2023-04-16T03:48:52;22.20;51.30
15609;DHT22;64278;45.642;13.756;2023-04-16T03:51:17;22.20;51.30
15609;DHT22;64278;45.642;13.756;2023-04-16T03:53:43;22.10;51.20
15609;DHT22;64278;45.642;13.756;2023-04-16T03:56:09;22.20;51.20
15609;DHT22;64278;45.642;13.756;2023-04-16T03:58:34;22.20;51.30
15609;DHT22;64278;45.642;13.756;2023-04-16T04:01:00;22.10;51.20
15609;DHT22;64278;45.642;13.756;2023-04-16T04:03:25;22.10;51.20
15609;DHT22;64278;45.642;13.756;2023-04-16T04:05:51;22.10;51.30
15609;DHT22;64278;45.642;13.756;2023-04-16T04:08:17;22.10;51.30
15609;DHT22;64278;45.642;13.756;2023-04-16T04:10:42;22.10;51.30
15609;DHT22;64278;45.642;13.756;2023-04-16T04:13:10;22.10;51.30
15609;DHT22;64278;45.642;13.756;2023-04-16T04:15:35;22.10;51.30
15609;DHT22;64278;45.642;13.756;2023-04-16T04:18:01;22.10;51.30
15609;DHT22;64278;45.642;13.756;2023-04-16T04:20:27;22.10;51.40
15609;DHT22;64278;45.642;13.756;2023-04-16T04:22:52;22.10;51.40
15609;DHT22;64278;45.642;13.756;2023-04-16T04:25:18;22.10;51.40
15609;DHT22;64278;45.642;13.756;2023-04-16T04:27:44;22.10;51.40
15609;DHT22;64278;45.642;13.756;2023-04-16T04:30:10;22.10;51.30
15609;DHT22;64278;45.642;13.756;2023-04-16T04:32:36;22.10;51.50
15609;DHT22;64278;45.642;13.756;2023-04-16T04:35:02;22.10;51.40
15609;DHT22;64278;45.642;13.756;2023-04-16T04:37:28;22.10;51.50
15609;DHT22;64278;45.642;13.756;2023-04-16T04:39:54;22.10;51.40
15609;DHT22;64278;45.642;13.756;2023-04-16T04:42:20;22.10;51.60
15609;DHT22;64278;45.642;13.756;2023-04-16T04:44:47;22.10;51.50
15609;DHT22;64278;45.642;13.756;2023-04-16T04:47:13;22.00;51.40
15609;DHT22;64278;45.642;13.756;2023-04-16T04:49:39;22.00;51.40
15609;DHT22;64278;45.642;13.756;2023-04-16T04:52:05;22.10;51.50
15609;DHT22;64278;45.642;13.756;2023-04-16T04:54:31;22.00;51.50
15609;DHT22;64278;45.642;13.756;2023-04-16T04:56:57;22.00;51.50
15609;DHT22;64278;45.642;13.756;2023-04-16T04:59:23;22.00;51.50
15609;DHT22;64278;45.642;13.756;2023-04-16T05:01:49;22.00;51.50
15609;DHT22;64278;45.642;13.756;2023-04-16T05:04:15;22.00;51.50
15609;DHT22;64278;45.642;13.756;2023-04-16T05:06:41;22.00;51.50
15609;DHT22;64278;45.642;13.756;2023-04-16T05:09:07;22.00;51.50
15609;DHT22;64278;45.642;13.756;2023-04-16T05:11:37;22.00;51.40
15609;DHT22;64278;45.642;13.756;2023-04-16T05:14:02;22.00;51.50
15609;DHT22;64278;45.642;13.756;2023-04-16T05:16:28;22.00;51.50
15609;DHT22;64278;45.642;13.756;2023-04-16T05:18:54;22.00;51.50
15609;DHT22;64278;45.642;13.756;2023-04-16T05:21:21;22.00;51.50
15609;DHT22;64278;45.642;13.756;2023-04-16T05:23:46;21.90;51.40
15609;DHT22;64278;45.642;13.756;2023-04-16T05:26:12;21.90;51.50
15609;DHT22;64278;45.642;13.756;2023-04-16T05:28:38;22.00;51.50
15609;DHT22;64278;45.642;13.756;2023-04-16T05:31:03;21.90;51.50
15609;DHT22;64278;45.642;13.756;2023-04-16T05:33:29;21.90;51.50
15609;DHT22;64278;45.642;13.756;2023-04-16T05:35:55;21.90;51.40
15609;DHT22;64278;45.642;13.756;2023-04-16T05:38:21;21.90;51.50
15609;DHT22;64278;45.642;13.756;2023-04-16T05:40:46;21.90;51.50
15609;DHT22;64278;45.642;13.756;2023-04-16T05:43:12;21.90;51.40
15609;DHT22;64278;45.642;13.756;2023-04-16T05:45:37;21.90;51.40
15609;DHT22;64278;45.642;13.756;2023-04-16T05:48:06;21.90;51.40
15609;DHT22;64278;45.642;13.756;2023-04-16T05:50:33;21.90;51.50
15609;DHT22;64278;45.642;13.756;2023-04-16T05:53:00;21.90;51.40
15609;DHT22;64278;45.642;13.756;2023-04-16T05:55:26;21.90;51.40
15609;DHT22;64278;45.642;13.756;2023-04-16T05:57:52;21.90;51.50
15609;DHT22;64278;45.642;13.756;2023-04-16T06:00:18;21.90;51.50
15609;DHT22;64278;45.642;13.756;2023-04-16T06:02:43;21.90;51.50
15609;DHT22;64278;45.642;13.756;2023-04-16T06:05:09;21.90;51.50
15609;DHT22;64278;45.642;13.756;2023-04-16T06:07:35;21.90;51.50
15609;DHT22;64278;45.642;13.756;2023-04-16T06:10:00;21.90;51.50
15609;DHT22;64278;45.642;13.756;2023-04-16T06:12:26;21.90;51.50
15609;DHT22;64278;45.642;13.756;2023-04-16T06:14:52;21.90;51.50
15609;DHT22;64278;45.642;13.756;2023-04-16T06:17:17;21.90;51.50
15609;DHT22;64278;45.642;13.756;2023-04-16T06:19:44;21.80;51.40
15609;DHT22;64278;45.642;13.756;2023-04-16T06:22:09;21.80;51.40
15609;DHT22;64278;45.642;13.756;2023-04-16T06:24:35;21.80;51.40
15609;DHT22;64278;45.642;13.756;2023-04-16T06:27:01;21.80;51.40
15609;DHT22;64278;45.642;13.756;2023-04-16T06:29:27;21.80;51.40
15609;DHT22;64278;45.642;13.756;2023-04-16T06:31:53;21.80;51.40
15609;DHT22;64278;45.642;13.756;2023-04-16T06:34:19;21.80;51.40
15609;DHT22;64278;45.642;13.756;2023-04-16T06:36:45;21.80;51.50
15609;DHT22;64278;45.642;13.756;2023-04-16T06:39:10;21.80;51.50
15609;DHT22;64278;45.642;13.756;2023-04-16T06:41:36;21.80;51.50
15609;DHT22;64278;45.642;13.756;2023-04-16T06:44:02;21.80;51.50
15609;DHT22;64278;45.642;13.756;2023-04-16T06:46:27;21.80;51.50
15609;DHT22;64278;45.642;13.756;2023-04-16T06:48:53;21.80;51.60
15609;DHT22;64278;45.642;13.756;2023-04-16T06:51:19;21.80;51.60
15609;DHT22;64278;45.642;13.756;2023-04-16T06:53:45;21.80;51.60
15609;DHT22;64278;45.642;13.756;2023-04-16T06:56:10;21.80;51.60
15609;DHT22;64278;45.642;13.756;2023-04-16T06:58:36;21.80;51.60
15609;DHT22;64278;45.642;13.756;2023-04-16T07:01:02;21.80;51.60
15609;DHT22;64278;45.642;13.756;2023-04-16T07:03:27;21.80;51.60
15609;DHT22;64278;45.642;13.756;2023-04-16T07:05:53;21.80;51.60
15609;DHT22;64278;45.642;13.756;2023-04-16T07:08:19;21.80;51.60
15609;DHT22;64278;45.642;13.756;2023-04-16T07:10:44;21.80;51.60
15609;DHT22;64278;45.642;13.756;2023-04-16T07:13:10;21.80;51.70
15609;DHT22;64278;45.642;13.756;2023-04-16T07:15:35;21.80;51.60
15609;DHT22;64278;45.642;13.756;2023-04-16T07:18:01;21.80;51.60
15609;DHT22;64278;45.642;13.756;2023-04-16T07:20:27;21.80;51.70
15609;DHT22;64278;45.642;13.756;2023-04-16T07:22:52;21.70;51.60
15609;DHT22;64278;45.642;13.756;2023-04-16T07:25:18;21.80;51.60
15609;DHT22;64278;45.642;13.756;2023-04-16T07:27:44;21.80;51.60
15609;DHT22;64278;45.642;13.756;2023-04-16T07:30:10;21.70;51.50
15609;DHT22;64278;45.642;13.756;2023-04-16T07:32:36;21.80;51.60
15609;DHT22;64278;45.642;13.756;2023-04-16T07:35:02;21.70;51.50
15609;DHT22;64278;45.642;13.756;2023-04-16T07:37:28;21.80;51.60
15609;DHT22;64278;45.642;13.756;2023-04-16T07:39:54;21.70;51.50
15609;DHT22;64278;45.642;13.756;2023-04-16T07:42:22;21.70;51.50
15609;DHT22;64278;45.642;13.756;2023-04-16T07:44:47;21.70;51.50
15609;DHT22;64278;45.642;13.756;2023-04-16T07:47:13;21.80;51.60
15609;DHT22;64278;45.642;13.756;2023-04-16T07:49:39;21.80;51.60
15609;DHT22;64278;45.642;13.756;2023-04-16T07:52:05;21.80;51.60
15609;DHT22;64278;45.642;13.756;2023-04-16T07:54:31;21.70;51.50
15609;DHT22;64278;45.642;13.756;2023-04-16T07:56:56;21.70;51.50
15609;DHT22;64278;45.642;13.756;2023-04-16T07:59:22;21.70;51.50
15609;DHT22;64278;45.642;13.756;2023-04-16T08:01:48;21.70;51.60
15609;DHT22;64278;45.642;13.756;2023-04-16T08:04:14;21.70;51.50
15609;DHT22;64278;45.642;13.756;2023-04-16T08:06:41;21.70;51.50
15609;DHT22;64278;45.642;13.756;2023-04-16T08:09:07;21.70;51.50
15609;DHT22;64278;45.642;13.756;2023-04-16T08:11:32;21.70;51.60
15609;DHT22;64278;45.642;13.756;2023-04-16T08:13:58;21.70;52.00
15609;DHT22;64278;45.642;13.756;2023-04-16T08:16:24;21.70;52.80
15609;DHT22;64278;45.642;13.756;2023-04-16T08:18:49;21.70;53.40
15609;DHT22;64278;45.642;13.756;2023-04-16T08:21:15;21.70;53.70
15609;DHT22;64278;45.642;13.756;2023-04-16T08:23:41;21.70;53.90
15609;DHT22;64278;45.642;13.756;2023-04-16T08:26:06;21.70;53.80
15609;DHT22;64278;45.642;13.756;2023-04-16T08:28:32;21.70;53.30
15609;DHT22;64278;45.642;13.756;2023-04-16T08:30:58;21.70;51.70
15609;DHT22;64278;45.642;13.756;2023-04-16T08:33:23;21.70;50.70
15609;DHT22;64278;45.642;13.756;2023-04-16T08:35:49;21.60;49.30
15609;DHT22;64278;45.642;13.756;2023-04-16T08:38:15;21.60;48.80
15609;DHT22;64278;45.642;13.756;2023-04-16T08:40:41;21.60;48.20
15609;DHT22;64278;45.642;13.756;2023-04-16T08:43:11;21.50;48.00
15609;DHT22;64278;45.642;13.756;2023-04-16T08:45:40;21.40;45.50
15609;DHT22;64278;45.642;13.756;2023-04-16T08:48:07;21.10;45.20
15609;DHT22;64278;45.642;13.756;2023-04-16T08:50:36;20.90;44.70
15609;DHT22;64278;45.642;13.756;2023-04-16T08:53:05;20.80;42.90
15609;DHT22;64278;45.642;13.756;2023-04-16T08:56:02;20.50;43.00
15609;DHT22;64278;45.642;13.756;2023-04-16T08:58:30;20.30;43.60
15609;DHT22;64278;45.642;13.756;2023-04-16T09:00:59;20.10;44.10
15609;DHT22;64278;45.642;13.756;2023-04-16T09:03:28;20.00;44.30
15609;DHT22;64278;45.642;13.756;2023-04-16T09:05:54;19.90;43.80
15609;DHT22;64278;45.642;13.756;2023-04-16T09:08:22;19.80;43.60
15609;DHT22;64278;45.642;13.756;2023-04-16T09:10:48;19.70;44.00
15609;DHT22;64278;45.642;13.756;2023-04-16T09:13:14;19.60;43.80
15609;DHT22;64278;45.642;13.756;2023-04-16T09:15:43;19.60;43.80
15609;DHT22;64278;45.642;13.756;2023-04-16T09:18:09;19.50;43.80
15609;DHT22;64278;45.642;13.756;2023-04-16T09:20:36;19.40;44.00
15609;DHT22;64278;45.642;13.756;2023-04-16T09:23:02;19.40;44.30
15609;DHT22;64278;45.642;13.756;2023-04-16T09:25:32;19.40;44.10
15609;DHT22;64278;45.642;13.756;2023-04-16T09:27:59;19.40;43.90
15609;DHT22;64278;45.642;13.756;2023-04-16T09:30:26;19.30;43.90
15609;DHT22;64278;45.642;13.756;2023-04-16T09:33:17;19.30;43.80
15609;DHT22;64278;45.642;13.756;2023-04-16T09:35:48;19.30;43.90
15609;DHT22;64278;45.642;13.756;2023-04-16T09:38:14;19.30;44.50
15609;DHT22;64278;45.642;13.756;2023-04-16T09:40:40;19.40;46.40
15609;DHT22;64278;45.642;13.756;2023-04-16T09:43:13;19.60;47.10
15609;DHT22;64278;45.642;13.756;2023-04-16T09:46:05;19.70;47.30
15609;DHT22;64278;45.642;13.756;2023-04-16T09:48:32;19.90;47.30
15609;DHT22;64278;45.642;13.756;2023-04-16T09:50:59;20.00;47.40
15609;DHT22;64278;45.642;13.756;2023-04-16T09:53:30;20.10;47.50
15609;DHT22;64278;45.642;13.756;2023-04-16T09:55:56;20.20;47.60
15609;DHT22;64278;45.642;13.756;2023-04-16T09:58:23;20.20;47.60
15609;DHT22;64278;45.642;13.756;2023-04-16T10:01:11;20.30;47.90
15609;DHT22;64278;45.642;13.756;2023-04-16T10:03:39;20.40;49.10
15609;DHT22;64278;45.642;13.756;2023-04-16T10:06:15;20.40;49.90
15609;DHT22;64278;45.642;13.756;2023-04-16T10:08:53;20.50;50.70
15609;DHT22;64278;45.642;13.756;2023-04-16T10:11:21;20.50;50.60
15609;DHT22;64278;45.642;13.756;2023-04-16T10:13:47;20.50;50.50
15609;DHT22;64278;45.642;13.756;2023-04-16T10:16:13;20.60;50.60
15609;DHT22;64278;45.642;13.756;2023-04-16T10:18:40;20.60;50.70
15609;DHT22;64278;45.642;13.756;2023-04-16T10:21:07;20.60;50.90
15609;DHT22;64278;45.642;13.756;2023-04-16T10:23:33;20.70;51.20
15609;DHT22;64278;45.642;13.756;2023-04-16T10:26:01;20.70;51.40
15609;DHT22;64278;45.642;13.756;2023-04-16T10:28:27;20.80;51.60
15609;DHT22;64278;45.642;13.756;2023-04-16T10:30:55;20.80;51.80
15609;DHT22;64278;45.642;13.756;2023-04-16T10:33:24;20.80;52.10
15609;DHT22;64278;45.642;13.756;2023-04-16T10:36:05;20.80;52.20
15609;DHT22;64278;45.642;13.756;2023-04-16T10:38:32;20.80;52.50
15609;DHT22;64278;45.642;13.756;2023-04-16T10:40:59;20.80;52.80
15609;DHT22;64278;45.642;13.756;2023-04-16T10:43:27;20.80;53.10
15609;DHT22;64278;45.642;13.756;2023-04-16T10:45:53;20.90;53.30
15609;DHT22;64278;45.642;13.756;2023-04-16T10:48:19;20.90;53.30
15609;DHT22;64278;45.642;13.756;2023-04-16T10:50:55;20.90;53.30
15609;DHT22;64278;45.642;13.756;2023-04-16T10:53:26;20.90;53.40
15609;DHT22;64278;45.642;13.756;2023-04-16T10:58:30;20.90;53.50
15609;DHT22;64278;45.642;13.756;2023-04-16T11:01:01;21.00;53.50
15609;DHT22;64278;45.642;13.756;2023-04-16T11:03:31;21.00;53.40
15609;DHT22;64278;45.642;13.756;2023-04-16T11:06:12;21.00;53.40
15609;DHT22;64278;45.642;13.756;2023-04-16T11:08:39;21.00;53.50
15609;DHT22;64278;45.642;13.756;2023-04-16T11:11:05;21.00;54.20
15609;DHT22;64278;45.642;13.756;2023-04-16T11:13:31;21.00;53.50
15609;DHT22;64278;45.642;13.756;2023-04-16T11:15:57;21.00;53.40
15609;DHT22;64278;45.642;13.756;2023-04-16T11:18:23;21.00;53.40
15609;DHT22;64278;45.642;13.756;2023-04-16T11:20:50;21.00;53.40
15609;DHT22;64278;45.642;13.756;2023-04-16T11:23:16;21.00;53.40
15609;DHT22;64278;45.642;13.756;2023-04-16T11:25:41;21.00;53.30
15609;DHT22;64278;45.642;13.756;2023-04-16T11:28:07;21.00;53.40
15609;DHT22;64278;45.642;13.756;2023-04-16T11:30:34;21.10;53.40
15609;DHT22;64278;45.642;13.756;2023-04-16T11:33:10;21.10;53.40
15609;DHT22;64278;45.642;13.756;2023-04-16T11:35:37;21.10;53.30
15609;DHT22;64278;45.642;13.756;2023-04-16T11:38:07;21.10;53.40
15609;DHT22;64278;45.642;13.756;2023-04-16T11:40:34;21.10;53.30
15609;DHT22;64278;45.642;13.756;2023-04-16T11:43:11;21.10;53.30
15609;DHT22;64278;45.642;13.756;2023-04-16T11:45:37;21.10;53.30
15609;DHT22;64278;45.642;13.756;2023-04-16T11:48:03;21.10;53.30
15609;DHT22;64278;45.642;13.756;2023-04-16T11:50:28;21.10;53.30
15609;DHT22;64278;45.642;13.756;2023-04-16T11:52:56;21.10;53.20
15609;DHT22;64278;45.642;13.756;2023-04-16T11:55:23;21.10;53.20
15609;DHT22;64278;45.642;13.756;2023-04-16T11:57:49;21.10;53.20
15609;DHT22;64278;45.642;13.756;2023-04-16T12:00:15;21.10;53.20
15609;DHT22;64278;45.642;13.756;2023-04-16T12:05:33;21.10;53.20
15609;DHT22;64278;45.642;13.756;2023-04-16T12:10:33;21.10;53.20
15609;DHT22;64278;45.642;13.756;2023-04-16T12:13:15;21.10;53.10
15609;DHT22;64278;45.642;13.756;2023-04-16T12:15:52;21.10;53.10
15609;DHT22;64278;45.642;13.756;2023-04-16T12:18:19;21.10;53.10
15609;DHT22;64278;45.642;13.756;2023-04-16T12:20:46;21.10;53.10
15609;DHT22;64278;45.642;13.756;2023-04-16T12:23:29;21.10;53.10
15609;DHT22;64278;45.642;13.756;2023-04-16T12:25:55;21.10;53.10
15609;DHT22;64278;45.642;13.756;2023-04-16T12:28:29;21.10;53.10
15609;DHT22;64278;45.642;13.756;2023-04-16T12:30:55;21.10;53.10
15609;DHT22;64278;45.642;13.756;2023-04-16T12:33:21;21.10;53.00
15609;DHT22;64278;45.642;13.756;2023-04-16T12:35:47;21.10;53.00
15609;DHT22;64278;45.642;13.756;2023-04-16T12:38:12;21.10;53.00
15609;DHT22;64278;45.642;13.756;2023-04-16T12:40:40;21.10;53.30
15609;DHT22;64278;45.642;13.756;2023-04-16T12:43:06;21.10;52.90
15609;DHT22;64278;45.642;13.756;2023-04-16T12:45:32;21.20;53.00
15609;DHT22;64278;45.642;13.756;2023-04-16T12:47:58;21.20;53.10
15609;DHT22;64278;45.642;13.756;2023-04-16T12:50:24;21.20;53.40
15609;DHT22;64278;45.642;13.756;2023-04-16T12:52:50;21.20;54.10
15609;DHT22;64278;45.642;13.756;2023-04-16T12:55:16;21.20;54.60
15609;DHT22;64278;45.642;13.756;2023-04-16T12:57:41;21.20;55.40
15609;DHT22;64278;45.642;13.756;2023-04-16T13:00:07;21.20;55.90
15609;DHT22;64278;45.642;13.756;2023-04-16T13:02:35;21.20;56.20
15609;DHT22;64278;45.642;13.756;2023-04-16T13:05:01;21.20;56.60
15609;DHT22;64278;45.642;13.756;2023-04-16T13:07:27;21.20;56.70
15609;DHT22;64278;45.642;13.756;2023-04-16T13:09:53;21.30;56.70
15609;DHT22;64278;45.642;13.756;2023-04-16T13:12:19;21.30;56.60
15609;DHT22;64278;45.642;13.756;2023-04-16T13:14:44;21.30;56.60
15609;DHT22;64278;45.642;13.756;2023-04-16T13:17:10;21.30;56.60
15609;DHT22;64278;45.642;13.756;2023-04-16T13:19:36;21.30;56.60
15609;DHT22;64278;45.642;13.756;2023-04-16T13:22:01;21.30;56.50
15609;DHT22;64278;45.642;13.756;2023-04-16T13:24:27;21.30;56.60
15609;DHT22;64278;45.642;13.756;2023-04-16T13:26:54;21.30;56.40
15609;DHT22;64278;45.642;13.756;2023-04-16T13:29:21;21.30;56.30
15609;DHT22;64278;45.642;13.756;2023-04-16T13:31:47;21.30;56.30
15609;DHT22;64278;45.642;13.756;2023-04-16T13:34:12;21.30;56.40
15609;DHT22;64278;45.642;13.756;2023-04-16T13:36:38;21.30;56.30
15609;DHT22;64278;45.642;13.756;2023-04-16T13:39:04;21.30;56.30
15609;DHT22;64278;45.642;13.756;2023-04-16T13:41:35;21.30;56.30
15609;DHT22;64278;45.642;13.756;2023-04-16T13:44:01;21.30;56.30
15609;DHT22;64278;45.642;13.756;2023-04-16T13:46:26;21.30;56.30
15609;DHT22;64278;45.642;13.756;2023-04-16T13:48:53;21.30;56.30
15609;DHT22;64278;45.642;13.756;2023-04-16T13:51:20;21.30;56.20
15609;DHT22;64278;45.642;13.756;2023-04-16T13:53:46;21.30;56.30
15609;DHT22;64278;45.642;13.756;2023-04-16T13:56:11;21.30;56.10
15609;DHT22;64278;45.642;13.756;2023-04-16T13:58:37;21.30;56.10
15609;DHT22;64278;45.642;13.756;2023-04-16T14:01:03;21.30;56.30
15609;DHT22;64278;45.642;13.756;2023-04-16T14:03:29;21.30;56.00
15609;DHT22;64278;45.642;13.756;2023-04-16T14:05:56;21.30;56.00
15609;DHT22;64278;45.642;13.756;2023-04-16T14:08:22;21.30;56.00
15609;DHT22;64278;45.642;13.756;2023-04-16T14:10:47;21.30;56.00
15609;DHT22;64278;45.642;13.756;2023-04-16T14:13:13;21.30;56.00
15609;DHT22;64278;45.642;13.756;2023-04-16T14:15:39;21.30;56.00
15609;DHT22;64278;45.642;13.756;2023-04-16T14:18:05;21.30;55.90
15609;DHT22;64278;45.642;13.756;2023-04-16T14:20:30;21.30;55.90
15609;DHT22;64278;45.642;13.756;2023-04-16T14:22:56;21.30;55.80
15609;DHT22;64278;45.642;13.756;2023-04-16T14:25:22;21.30;55.70
15609;DHT22;64278;45.642;13.756;2023-04-16T14:27:48;21.30;55.70
15609;DHT22;64278;45.642;13.756;2023-04-16T14:30:14;21.30;55.70
15609;DHT22;64278;45.642;13.756;2023-04-16T14:32:41;21.30;55.60
15609;DHT22;64278;45.642;13.756;2023-04-16T14:35:07;21.30;55.50
15609;DHT22;64278;45.642;13.756;2023-04-16T14:37:32;21.30;55.50
15609;DHT22;64278;45.642;13.756;2023-04-16T14:40:01;21.30;55.40
15609;DHT22;64278;45.642;13.756;2023-04-16T14:42:26;21.30;55.30
15609;DHT22;64278;45.642;13.756;2023-04-16T14:44:52;21.30;55.30
15609;DHT22;64278;45.642;13.756;2023-04-16T14:47:18;21.30;55.30
15609;DHT22;64278;45.642;13.756;2023-04-16T14:49:44;21.30;55.20
15609;DHT22;64278;45.642;13.756;2023-04-16T14:52:10;21.20;55.10
15609;DHT22;64278;45.642;13.756;2023-04-16T14:54:35;21.30;55.10
15609;DHT22;64278;45.642;13.756;2023-04-16T14:57:01;21.30;55.10
15609;DHT22;64278;45.642;13.756;2023-04-16T14:59:27;21.30;55.10
15609;DHT22;64278;45.642;13.756;2023-04-16T15:01:54;21.30;55.10
15609;DHT22;64278;45.642;13.756;2023-04-16T15:04:21;21.30;55.20
15609;DHT22;64278;45.642;13.756;2023-04-16T15:06:47;21.30;55.10
15609;DHT22;64278;45.642;13.756;2023-04-16T15:09:13;21.30;55.10
15609;DHT22;64278;45.642;13.756;2023-04-16T15:11:39;21.30;55.00
15609;DHT22;64278;45.642;13.756;2023-04-16T15:14:04;21.40;55.20
15609;DHT22;64278;45.642;13.756;2023-04-16T15:16:31;21.30;55.00
15609;DHT22;64278;45.642;13.756;2023-04-16T15:18:57;21.40;55.00
15609;DHT22;64278;45.642;13.756;2023-04-16T15:21:24;21.40;55.00